BOX7UG EGPH-EDDP
Flight info
| Callsign | BOX7UG |
|---|---|
| Flight time | 1h 41m |
| Altitude | 35000 |
| Route | TLA Y96 HAVEN DCT OTBUN DCT NATEB DCT LONAM DCT NORTA DCT ADMOS T959 KOJEC KOJEC1V |
| Aircraft | B77L/H-SDE1E2E3FGHIJ2J3J4J5M1RWXY/LB1D1 |
Departure
| Time | 2026-04-22 10:17 |
|---|---|
| Airport | Edinburgh Airport (EGPH) |
Arrival
| Time | 2026-04-22 11:58 |
|---|---|
| Airport | Leipzig/Halle Airport (EDDP) |
| Time | Latitude | Longitude | Altitude | Speed | Heading |
|---|---|---|---|---|---|
| 2026-04-22 09:42 | 55.95010 | -3.34845 | 118 ft | 0 kts | 28° |
| 2026-04-22 10:00 | 55.95011 | -3.34845 | 121 ft | 0 kts | 27° |
| 2026-04-22 10:04 | 55.94991 | -3.34864 | 116 ft | 4 kts | 29° |
| 2026-04-22 10:05 | 55.94973 | -3.34881 | 117 ft | 4 kts | 352° |
| 2026-04-22 10:05 | 55.94955 | -3.34858 | 116 ft | 3 kts | 313° |
| 2026-04-22 10:05 | 55.94939 | -3.34828 | 116 ft | 4 kts | 314° |
| 2026-04-22 10:05 | 55.94924 | -3.34789 | 116 ft | 4 kts | 289° |
| 2026-04-22 10:06 | 55.94917 | -3.34754 | 116 ft | 0 kts | 298° |
| 2026-04-22 10:09 | 55.94920 | -3.34767 | 121 ft | 3 kts | 292° |
| 2026-04-22 10:09 | 55.94906 | -3.34831 | 117 ft | 9 kts | 222° |
| 2026-04-22 10:09 | 55.94847 | -3.34897 | 116 ft | 9 kts | 216° |
| 2026-04-22 10:10 | 55.94845 | -3.35006 | 116 ft | 10 kts | 295° |
| 2026-04-22 10:10 | 55.94878 | -3.35119 | 117 ft | 12 kts | 298° |
| 2026-04-22 10:10 | 55.94925 | -3.35273 | 118 ft | 16 kts | 298° |
| 2026-04-22 10:10 | 55.94964 | -3.35400 | 117 ft | 19 kts | 299° |
| 2026-04-22 10:11 | 55.95030 | -3.35611 | 117 ft | 19 kts | 299° |
| 2026-04-22 10:11 | 55.95071 | -3.35742 | 118 ft | 11 kts | 301° |
| 2026-04-22 10:11 | 55.95115 | -3.35860 | 116 ft | 11 kts | 298° |
| 2026-04-22 10:11 | 55.95173 | -3.35953 | 116 ft | 11 kts | 331° |
| 2026-04-22 10:12 | 55.95202 | -3.36071 | 118 ft | 12 kts | 251° |
| 2026-04-22 10:12 | 55.95161 | -3.36201 | 116 ft | 13 kts | 239° |
| 2026-04-22 10:12 | 55.95102 | -3.36377 | 116 ft | 20 kts | 239° |
| 2026-04-22 10:12 | 55.95025 | -3.36604 | 117 ft | 22 kts | 239° |
| 2026-04-22 10:13 | 55.94947 | -3.36834 | 117 ft | 22 kts | 239° |
| 2026-04-22 10:13 | 55.94869 | -3.37063 | 118 ft | 22 kts | 239° |
| 2026-04-22 10:13 | 55.94791 | -3.37293 | 119 ft | 22 kts | 239° |
| 2026-04-22 10:13 | 55.94713 | -3.37523 | 118 ft | 22 kts | 238° |
| 2026-04-22 10:14 | 55.94635 | -3.37752 | 117 ft | 22 kts | 239° |
| 2026-04-22 10:14 | 55.94558 | -3.37983 | 117 ft | 22 kts | 239° |
| 2026-04-22 10:14 | 55.94480 | -3.38212 | 116 ft | 22 kts | 238° |
| 2026-04-22 10:14 | 55.94401 | -3.38442 | 116 ft | 22 kts | 238° |
| 2026-04-22 10:15 | 55.94325 | -3.38667 | 117 ft | 18 kts | 238° |
| 2026-04-22 10:15 | 55.94281 | -3.38798 | 118 ft | 9 kts | 247° |
| 2026-04-22 10:15 | 55.94307 | -3.38887 | 118 ft | 9 kts | 324° |
| 2026-04-22 10:15 | 55.94360 | -3.38947 | 116 ft | 10 kts | 328° |
| 2026-04-22 10:16 | 55.94392 | -3.38982 | 115 ft | 3 kts | 335° |
| 2026-04-22 10:16 | 55.94418 | -3.38961 | 115 ft | 5 kts | 48° |
| 2026-04-22 10:16 | 55.94423 | -3.38946 | 115 ft | 0 kts | 59° |
| 2026-04-22 10:16 | 55.94457 | -3.38847 | 114 ft | 37 kts | 58° |
| 2026-04-22 10:17 | 55.94731 | -3.38041 | 116 ft | 111 kts | 58° |
| 2026-04-22 10:17 | 55.95238 | -3.36552 | 160 ft | 162 kts | 58° |
| 2026-04-22 10:17 | 55.95844 | -3.34847 | 848 ft | 164 kts | 58° |
| 2026-04-22 10:17 | 55.96604 | -3.33328 | 1508 ft | 172 kts | 41° |
| 2026-04-22 10:18 | 55.97602 | -3.31901 | 1753 ft | 200 kts | 44° |
| 2026-04-22 10:18 | 55.98694 | -3.30108 | 2158 ft | 224 kts | 45° |
| 2026-04-22 10:18 | 55.99858 | -3.28176 | 2902 ft | 233 kts | 45° |
| 2026-04-22 10:18 | 56.01077 | -3.26177 | 3677 ft | 243 kts | 45° |
| 2026-04-22 10:19 | 56.02342 | -3.24116 | 4481 ft | 249 kts | 45° |
| 2026-04-22 10:19 | 56.03648 | -3.21998 | 5289 ft | 257 kts | 46° |
| 2026-04-22 10:19 | 56.04870 | -3.19668 | 5990 ft | 257 kts | 63° |
| 2026-04-22 10:19 | 56.05344 | -3.16626 | 6768 ft | 255 kts | 90° |
| 2026-04-22 10:20 | 56.05206 | -3.13465 | 7555 ft | 257 kts | 98° |
| 2026-04-22 10:20 | 56.04845 | -3.10326 | 8197 ft | 261 kts | 114° |
| 2026-04-22 10:20 | 56.03752 | -3.07756 | 8960 ft | 263 kts | 138° |
| 2026-04-22 10:20 | 56.02295 | -3.05719 | 9751 ft | 268 kts | 141° |
| 2026-04-22 10:21 | 56.00803 | -3.03694 | 10586 ft | 269 kts | 141° |
| 2026-04-22 10:21 | 55.99308 | -3.01660 | 11355 ft | 272 kts | 141° |
| 2026-04-22 10:21 | 55.97787 | -2.99523 | 11813 ft | 289 kts | 141° |
| 2026-04-22 10:21 | 55.96150 | -2.97191 | 11990 ft | 314 kts | 141° |
| 2026-04-22 10:22 | 55.94377 | -2.94660 | 12188 ft | 338 kts | 141° |
| 2026-04-22 10:22 | 55.92491 | -2.91976 | 12629 ft | 353 kts | 141° |
| 2026-04-22 10:22 | 55.90543 | -2.89209 | 13284 ft | 362 kts | 141° |
| 2026-04-22 10:22 | 55.88561 | -2.86396 | 14074 ft | 367 kts | 142° |
| 2026-04-22 10:23 | 55.86553 | -2.83556 | 14875 ft | 370 kts | 142° |
| 2026-04-22 10:23 | 55.84529 | -2.80696 | 15607 ft | 374 kts | 142° |
| 2026-04-22 10:23 | 55.82477 | -2.77803 | 16246 ft | 380 kts | 142° |
| 2026-04-22 10:23 | 55.80384 | -2.74859 | 16967 ft | 385 kts | 142° |
| 2026-04-22 10:24 | 55.78276 | -2.71898 | 17735 ft | 388 kts | 142° |
| 2026-04-22 10:24 | 55.76177 | -2.68952 | 18482 ft | 391 kts | 143° |
| 2026-04-22 10:24 | 55.74028 | -2.65940 | 19134 ft | 396 kts | 143° |
| 2026-04-22 10:24 | 55.71855 | -2.62898 | 19771 ft | 400 kts | 143° |
| 2026-04-22 10:25 | 55.69661 | -2.59831 | 20412 ft | 403 kts | 143° |
| 2026-04-22 10:25 | 55.67453 | -2.56751 | 21084 ft | 406 kts | 143° |
| 2026-04-22 10:25 | 55.65225 | -2.53645 | 21722 ft | 409 kts | 143° |
| 2026-04-22 10:25 | 55.62978 | -2.50518 | 22344 ft | 413 kts | 143° |
| 2026-04-22 10:26 | 55.60708 | -2.47364 | 22972 ft | 417 kts | 143° |
| 2026-04-22 10:26 | 55.58417 | -2.44185 | 23597 ft | 420 kts | 143° |
| 2026-04-22 10:26 | 55.56106 | -2.40984 | 24193 ft | 424 kts | 143° |
| 2026-04-22 10:26 | 55.53773 | -2.37757 | 24681 ft | 428 kts | 143° |
| 2026-04-22 10:27 | 55.51417 | -2.34503 | 25141 ft | 432 kts | 143° |
| 2026-04-22 10:27 | 55.49036 | -2.31219 | 25541 ft | 439 kts | 143° |
| 2026-04-22 10:27 | 55.46603 | -2.27870 | 25797 ft | 448 kts | 143° |
| 2026-04-22 10:27 | 55.44128 | -2.24468 | 26249 ft | 453 kts | 143° |
| 2026-04-22 10:28 | 55.41640 | -2.21054 | 26748 ft | 455 kts | 143° |
| 2026-04-22 10:28 | 55.39145 | -2.17636 | 27542 ft | 452 kts | 143° |
| 2026-04-22 10:28 | 55.36654 | -2.14228 | 28033 ft | 457 kts | 143° |
| 2026-04-22 10:28 | 55.34126 | -2.10777 | 28368 ft | 463 kts | 143° |
| 2026-04-22 10:29 | 55.31565 | -2.07288 | 28805 ft | 467 kts | 143° |
| 2026-04-22 10:29 | 55.28988 | -2.03781 | 29349 ft | 469 kts | 143° |
| 2026-04-22 10:29 | 55.26401 | -2.00265 | 29779 ft | 473 kts | 144° |
| 2026-04-22 10:29 | 55.23784 | -1.96713 | 30050 ft | 480 kts | 144° |
| 2026-04-22 10:30 | 55.21099 | -1.93078 | 30072 ft | 493 kts | 144° |
| 2026-04-22 10:30 | 55.18363 | -1.89383 | 30330 ft | 500 kts | 144° |
| 2026-04-22 10:30 | 55.15598 | -1.85652 | 30741 ft | 503 kts | 144° |
| 2026-04-22 10:30 | 55.12830 | -1.81919 | 31261 ft | 501 kts | 144° |
| 2026-04-22 10:31 | 55.10077 | -1.78214 | 31914 ft | 497 kts | 144° |
| 2026-04-22 10:31 | 55.07377 | -1.74505 | 32552 ft | 492 kts | 140° |
| 2026-04-22 10:31 | 55.05017 | -1.70182 | 33026 ft | 494 kts | 128° |
| 2026-04-22 10:31 | 55.03138 | -1.65170 | 33506 ft | 495 kts | 119° |
| 2026-04-22 10:32 | 55.01776 | -1.59706 | 34289 ft | 484 kts | 109° |
| 2026-04-22 10:32 | 55.00806 | -1.54154 | 35132 ft | 475 kts | 108° |
| 2026-04-22 10:32 | 54.99842 | -1.48697 | 35356 ft | 479 kts | 108° |
| 2026-04-22 10:32 | 54.98842 | -1.43152 | 35569 ft | 482 kts | 108° |
| 2026-04-22 10:33 | 54.96778 | -1.31969 | 35528 ft | 488 kts | 109° |
| 2026-04-22 10:33 | 54.94658 | -1.20677 | 35523 ft | 492 kts | 109° |
| 2026-04-22 10:34 | 54.92516 | -1.09349 | 35508 ft | 494 kts | 109° |
| 2026-04-22 10:34 | 54.90385 | -0.98129 | 35497 ft | 482 kts | 109° |
| 2026-04-22 10:35 | 54.88284 | -0.87136 | 35508 ft | 479 kts | 109° |
| 2026-04-22 10:35 | 54.86172 | -0.76159 | 35510 ft | 480 kts | 109° |
| 2026-04-22 10:36 | 54.84041 | -0.65132 | 35504 ft | 482 kts | 110° |
| 2026-04-22 10:36 | 54.81895 | -0.54098 | 35502 ft | 483 kts | 110° |
| 2026-04-22 10:37 | 54.78651 | -0.37527 | 35497 ft | 484 kts | 110° |
| 2026-04-22 10:38 | 54.76473 | -0.26481 | 35497 ft | 484 kts | 110° |
| 2026-04-22 10:38 | 54.74284 | -0.15445 | 35478 ft | 485 kts | 110° |
| 2026-04-22 10:39 | 54.72083 | -0.04399 | 35503 ft | 487 kts | 109° |
| 2026-04-22 10:39 | 54.69860 | 0.06680 | 35494 ft | 487 kts | 110° |
| 2026-04-22 10:40 | 54.67640 | 0.17691 | 35489 ft | 483 kts | 110° |
| 2026-04-22 10:40 | 54.65424 | 0.28612 | 35487 ft | 480 kts | 110° |
| 2026-04-22 10:41 | 54.63210 | 0.39463 | 35487 ft | 478 kts | 110° |
| 2026-04-22 10:41 | 54.61010 | 0.50190 | 35489 ft | 477 kts | 110° |
| 2026-04-22 10:42 | 54.58794 | 0.60943 | 35497 ft | 474 kts | 111° |
| 2026-04-22 10:42 | 54.56580 | 0.71625 | 35471 ft | 472 kts | 111° |
| 2026-04-22 10:43 | 54.54369 | 0.82237 | 35479 ft | 469 kts | 111° |
| 2026-04-22 10:43 | 54.52153 | 0.92809 | 35478 ft | 468 kts | 111° |
| 2026-04-22 10:44 | 54.49935 | 1.03341 | 35480 ft | 468 kts | 111° |
| 2026-04-22 10:44 | 54.47708 | 1.13866 | 35481 ft | 468 kts | 111° |
| 2026-04-22 10:45 | 54.45475 | 1.24358 | 35477 ft | 467 kts | 111° |
| 2026-04-22 10:45 | 54.43238 | 1.34815 | 35483 ft | 466 kts | 111° |
| 2026-04-22 10:46 | 54.40994 | 1.45249 | 35468 ft | 466 kts | 111° |
| 2026-04-22 10:46 | 54.38742 | 1.55675 | 35482 ft | 465 kts | 111° |
| 2026-04-22 10:47 | 54.36487 | 1.66058 | 35479 ft | 464 kts | 111° |
| 2026-04-22 10:47 | 54.34241 | 1.76349 | 35473 ft | 462 kts | 111° |
| 2026-04-22 10:48 | 54.31981 | 1.86652 | 35466 ft | 461 kts | 111° |
| 2026-04-22 10:48 | 54.29720 | 1.96909 | 35464 ft | 460 kts | 111° |
| 2026-04-22 10:49 | 54.27455 | 2.07130 | 35470 ft | 459 kts | 111° |
| 2026-04-22 10:49 | 54.25181 | 2.17345 | 35456 ft | 460 kts | 111° |
| 2026-04-22 10:50 | 54.22893 | 2.27577 | 35467 ft | 461 kts | 111° |
| 2026-04-22 10:50 | 54.20588 | 2.37831 | 35459 ft | 464 kts | 111° |
| 2026-04-22 10:51 | 54.18259 | 2.48138 | 35477 ft | 465 kts | 111° |
| 2026-04-22 10:51 | 54.15917 | 2.58452 | 35465 ft | 467 kts | 111° |
| 2026-04-22 10:52 | 54.13555 | 2.68803 | 35469 ft | 468 kts | 110° |
| 2026-04-22 10:52 | 54.11184 | 2.79152 | 35458 ft | 469 kts | 110° |
| 2026-04-22 10:53 | 54.08817 | 2.89425 | 35461 ft | 469 kts | 110° |
| 2026-04-22 10:53 | 54.06424 | 2.99759 | 35460 ft | 469 kts | 110° |
| 2026-04-22 10:54 | 54.04027 | 3.10059 | 35452 ft | 468 kts | 111° |
| 2026-04-22 10:54 | 54.01622 | 3.20349 | 35469 ft | 468 kts | 110° |
| 2026-04-22 10:55 | 53.99212 | 3.30610 | 35454 ft | 467 kts | 110° |
| 2026-04-22 10:55 | 53.96796 | 3.40848 | 35458 ft | 466 kts | 110° |
| 2026-04-22 10:56 | 53.94376 | 3.51061 | 35452 ft | 466 kts | 110° |
| 2026-04-22 10:56 | 53.91945 | 3.61265 | 35458 ft | 466 kts | 110° |
| 2026-04-22 10:57 | 53.89916 | 3.69747 | 35467 ft | 467 kts | 110° |
| 2026-04-22 10:57 | 53.87466 | 3.79947 | 35452 ft | 468 kts | 110° |
| 2026-04-22 10:58 | 53.85000 | 3.90172 | 35451 ft | 469 kts | 110° |
| 2026-04-22 10:58 | 53.82297 | 4.00233 | 35449 ft | 470 kts | 115° |
| 2026-04-22 10:59 | 53.79326 | 4.10088 | 35448 ft | 471 kts | 115° |
| 2026-04-22 10:59 | 53.76338 | 4.19942 | 35458 ft | 471 kts | 115° |
| 2026-04-22 11:00 | 53.73355 | 4.29807 | 35445 ft | 471 kts | 115° |
| 2026-04-22 11:00 | 53.70377 | 4.39652 | 35452 ft | 471 kts | 115° |
| 2026-04-22 11:01 | 53.67391 | 4.49493 | 35452 ft | 471 kts | 115° |
| 2026-04-22 11:01 | 53.64396 | 4.59319 | 35446 ft | 471 kts | 115° |
| 2026-04-22 11:02 | 53.61388 | 4.69146 | 35445 ft | 471 kts | 115° |
| 2026-04-22 11:02 | 53.58378 | 4.78939 | 35443 ft | 471 kts | 115° |
| 2026-04-22 11:03 | 53.55355 | 4.88732 | 35440 ft | 472 kts | 115° |
| 2026-04-22 11:03 | 53.52325 | 4.98510 | 35442 ft | 472 kts | 115° |
| 2026-04-22 11:04 | 53.49306 | 5.08215 | 35445 ft | 472 kts | 115° |
| 2026-04-22 11:04 | 53.46257 | 5.17975 | 35428 ft | 472 kts | 115° |
| 2026-04-22 11:05 | 53.43196 | 5.27733 | 35444 ft | 473 kts | 115° |
| 2026-04-22 11:05 | 53.40123 | 5.37491 | 35435 ft | 474 kts | 115° |
| 2026-04-22 11:06 | 53.37036 | 5.47255 | 35430 ft | 474 kts | 115° |
| 2026-04-22 11:06 | 53.33937 | 5.57015 | 35428 ft | 475 kts | 116° |
| 2026-04-22 11:07 | 53.30830 | 5.66760 | 35447 ft | 475 kts | 115° |
| 2026-04-22 11:07 | 53.27714 | 5.76496 | 35431 ft | 475 kts | 115° |
| 2026-04-22 11:08 | 53.24590 | 5.86216 | 35424 ft | 474 kts | 115° |
| 2026-04-22 11:08 | 53.21468 | 5.95894 | 35426 ft | 473 kts | 116° |
| 2026-04-22 11:09 | 53.18336 | 6.05565 | 35423 ft | 473 kts | 116° |
| 2026-04-22 11:09 | 53.15201 | 6.15205 | 35437 ft | 472 kts | 116° |
| 2026-04-22 11:10 | 53.12063 | 6.24818 | 35423 ft | 472 kts | 116° |
| 2026-04-22 11:10 | 53.08921 | 6.34407 | 35416 ft | 472 kts | 116° |
| 2026-04-22 11:11 | 53.05769 | 6.43985 | 35412 ft | 472 kts | 116° |
| 2026-04-22 11:11 | 53.02628 | 6.53497 | 35413 ft | 473 kts | 116° |
| 2026-04-22 11:12 | 52.99459 | 6.63054 | 35448 ft | 473 kts | 116° |
| 2026-04-22 11:12 | 52.96274 | 6.72621 | 35414 ft | 473 kts | 116° |
| 2026-04-22 11:13 | 52.93085 | 6.82163 | 35417 ft | 474 kts | 116° |
| 2026-04-22 11:13 | 52.89885 | 6.91704 | 35402 ft | 473 kts | 116° |
| 2026-04-22 11:14 | 52.86676 | 7.01231 | 35392 ft | 473 kts | 116° |
| 2026-04-22 11:14 | 52.83462 | 7.10740 | 35400 ft | 473 kts | 116° |
| 2026-04-22 11:15 | 52.80240 | 7.20233 | 35396 ft | 473 kts | 116° |
| 2026-04-22 11:15 | 52.77014 | 7.29704 | 35397 ft | 473 kts | 116° |
| 2026-04-22 11:16 | 52.73781 | 7.39159 | 35392 ft | 473 kts | 116° |
| 2026-04-22 11:16 | 52.70536 | 7.48610 | 35401 ft | 473 kts | 116° |
| 2026-04-22 11:17 | 52.67285 | 7.58047 | 35410 ft | 473 kts | 116° |
| 2026-04-22 11:17 | 52.64025 | 7.67469 | 35404 ft | 473 kts | 116° |
| 2026-04-22 11:18 | 52.60763 | 7.76866 | 35398 ft | 473 kts | 117° |
| 2026-04-22 11:18 | 52.57494 | 7.86245 | 35401 ft | 472 kts | 117° |
| 2026-04-22 11:19 | 52.54220 | 7.95605 | 35397 ft | 472 kts | 117° |
| 2026-04-22 11:19 | 52.50944 | 8.04936 | 35414 ft | 472 kts | 117° |
| 2026-04-22 11:20 | 52.47661 | 8.14252 | 35411 ft | 471 kts | 117° |
| 2026-04-22 11:20 | 52.44368 | 8.23560 | 35408 ft | 471 kts | 117° |
| 2026-04-22 11:21 | 52.41076 | 8.32832 | 35403 ft | 471 kts | 117° |
| 2026-04-22 11:21 | 52.37772 | 8.42104 | 35403 ft | 471 kts | 117° |
| 2026-04-22 11:22 | 52.34486 | 8.51291 | 35401 ft | 471 kts | 117° |
| 2026-04-22 11:22 | 52.31172 | 8.60525 | 35398 ft | 471 kts | 117° |
| 2026-04-22 11:23 | 52.27846 | 8.69754 | 35398 ft | 471 kts | 117° |
| 2026-04-22 11:23 | 52.24515 | 8.78965 | 35401 ft | 471 kts | 118° |
| 2026-04-22 11:24 | 52.21180 | 8.88155 | 35399 ft | 471 kts | 118° |
| 2026-04-22 11:24 | 52.17833 | 8.97341 | 35402 ft | 471 kts | 118° |
| 2026-04-22 11:25 | 52.14479 | 9.06517 | 35400 ft | 472 kts | 118° |
| 2026-04-22 11:25 | 52.11116 | 9.15683 | 35390 ft | 472 kts | 118° |
| 2026-04-22 11:26 | 52.07743 | 9.24842 | 35392 ft | 472 kts | 118° |
| 2026-04-22 11:26 | 52.04362 | 9.33989 | 35395 ft | 472 kts | 118° |
| 2026-04-22 11:27 | 52.00993 | 9.43076 | 35381 ft | 473 kts | 118° |
| 2026-04-22 11:27 | 51.97596 | 9.52202 | 35379 ft | 473 kts | 118° |
| 2026-04-22 11:28 | 51.94187 | 9.61331 | 35381 ft | 473 kts | 118° |
| 2026-04-22 11:28 | 51.90771 | 9.70446 | 35371 ft | 473 kts | 118° |
| 2026-04-22 11:29 | 51.87586 | 9.79735 | 35064 ft | 475 kts | 111° |
| 2026-04-22 11:29 | 51.86377 | 9.84747 | 34207 ft | 480 kts | 105° |
| 2026-04-22 11:29 | 51.85484 | 9.89916 | 33447 ft | 473 kts | 99° |
| 2026-04-22 11:29 | 51.84806 | 9.95070 | 32881 ft | 465 kts | 99° |
| 2026-04-22 11:30 | 51.84136 | 10.00152 | 32297 ft | 459 kts | 99° |
| 2026-04-22 11:30 | 51.83467 | 10.05163 | 31764 ft | 453 kts | 99° |
| 2026-04-22 11:30 | 51.82795 | 10.10116 | 31209 ft | 448 kts | 99° |
| 2026-04-22 11:30 | 51.82124 | 10.15011 | 30679 ft | 443 kts | 99° |
| 2026-04-22 11:31 | 51.81455 | 10.19848 | 30091 ft | 439 kts | 99° |
| 2026-04-22 11:31 | 51.80790 | 10.24628 | 29498 ft | 433 kts | 99° |
| 2026-04-22 11:31 | 51.80132 | 10.29340 | 28973 ft | 427 kts | 99° |
| 2026-04-22 11:31 | 51.79481 | 10.33990 | 28439 ft | 422 kts | 99° |
| 2026-04-22 11:32 | 51.78835 | 10.38583 | 27892 ft | 417 kts | 99° |
| 2026-04-22 11:32 | 51.78195 | 10.43122 | 27386 ft | 412 kts | 99° |
| 2026-04-22 11:32 | 51.77570 | 10.47551 | 26874 ft | 408 kts | 99° |
| 2026-04-22 11:32 | 51.76941 | 10.51993 | 26368 ft | 404 kts | 99° |
| 2026-04-22 11:33 | 51.76306 | 10.56460 | 25861 ft | 400 kts | 99° |
| 2026-04-22 11:33 | 51.75695 | 10.60755 | 25377 ft | 397 kts | 99° |
| 2026-04-22 11:33 | 51.75078 | 10.65075 | 24896 ft | 393 kts | 99° |
| 2026-04-22 11:33 | 51.74466 | 10.69350 | 24419 ft | 390 kts | 99° |
| 2026-04-22 11:34 | 51.73857 | 10.73605 | 23966 ft | 388 kts | 99° |
| 2026-04-22 11:34 | 51.73247 | 10.77840 | 23409 ft | 386 kts | 99° |
| 2026-04-22 11:34 | 51.72636 | 10.82040 | 22882 ft | 383 kts | 100° |
| 2026-04-22 11:34 | 51.71860 | 10.86142 | 22429 ft | 382 kts | 107° |
| 2026-04-22 11:35 | 51.70887 | 10.90111 | 21971 ft | 379 kts | 108° |
| 2026-04-22 11:35 | 51.69915 | 10.94043 | 21512 ft | 376 kts | 107° |
| 2026-04-22 11:35 | 51.68959 | 10.97930 | 21049 ft | 372 kts | 107° |
| 2026-04-22 11:35 | 51.68013 | 11.01799 | 20603 ft | 369 kts | 107° |
| 2026-04-22 11:36 | 51.67078 | 11.05632 | 20165 ft | 366 kts | 107° |
| 2026-04-22 11:36 | 51.66152 | 11.09433 | 19726 ft | 363 kts | 107° |
| 2026-04-22 11:36 | 51.65234 | 11.13196 | 19292 ft | 360 kts | 107° |
| 2026-04-22 11:36 | 51.64319 | 11.16940 | 18860 ft | 358 kts | 107° |
| 2026-04-22 11:37 | 51.63407 | 11.20663 | 18404 ft | 356 kts | 107° |
| 2026-04-22 11:37 | 51.62477 | 11.24351 | 17922 ft | 355 kts | 110° |
| 2026-04-22 11:37 | 51.61331 | 11.27858 | 17483 ft | 354 kts | 117° |
| 2026-04-22 11:37 | 51.59946 | 11.31125 | 17051 ft | 352 kts | 122° |
| 2026-04-22 11:38 | 51.58513 | 11.34295 | 16624 ft | 349 kts | 122° |
| 2026-04-22 11:38 | 51.57096 | 11.37435 | 16222 ft | 345 kts | 122° |
| 2026-04-22 11:38 | 51.54318 | 11.43644 | 15438 ft | 339 kts | 122° |
| 2026-04-22 11:39 | 51.52940 | 11.46729 | 15373 ft | 342 kts | 122° |
| 2026-04-22 11:39 | 51.51757 | 11.50027 | 15356 ft | 344 kts | 105° |
| 2026-04-22 11:39 | 51.51399 | 11.53742 | 15358 ft | 341 kts | 85° |
| 2026-04-22 11:39 | 51.51624 | 11.57563 | 15368 ft | 341 kts | 82° |
| 2026-04-22 11:40 | 51.51844 | 11.61320 | 15377 ft | 342 kts | 83° |
| 2026-04-22 11:40 | 51.52041 | 11.65128 | 15373 ft | 342 kts | 83° |
| 2026-04-22 11:40 | 51.52235 | 11.68934 | 15369 ft | 342 kts | 83° |
| 2026-04-22 11:40 | 51.52430 | 11.72743 | 15367 ft | 342 kts | 83° |
| 2026-04-22 11:41 | 51.52623 | 11.76554 | 15359 ft | 342 kts | 83° |
| 2026-04-22 11:41 | 51.52817 | 11.80365 | 15362 ft | 342 kts | 83° |
| 2026-04-22 11:41 | 51.53006 | 11.84138 | 15342 ft | 334 kts | 83° |
| 2026-04-22 11:41 | 51.53185 | 11.87778 | 15335 ft | 319 kts | 83° |
| 2026-04-22 11:42 | 51.53355 | 11.91233 | 15336 ft | 302 kts | 83° |
| 2026-04-22 11:42 | 51.53515 | 11.94514 | 15338 ft | 287 kts | 82° |
| 2026-04-22 11:42 | 51.53668 | 11.97646 | 15347 ft | 280 kts | 82° |
| 2026-04-22 11:42 | 51.53825 | 12.00796 | 15361 ft | 283 kts | 82° |
| 2026-04-22 11:43 | 51.53977 | 12.03946 | 15348 ft | 282 kts | 83° |
| 2026-04-22 11:43 | 51.54128 | 12.07080 | 15353 ft | 280 kts | 83° |
| 2026-04-22 11:43 | 51.54227 | 12.09148 | 15352 ft | 280 kts | 83° |
| 2026-04-22 11:43 | 51.54376 | 12.12252 | 15364 ft | 278 kts | 82° |
| 2026-04-22 11:44 | 51.54523 | 12.15348 | 15356 ft | 277 kts | 82° |
| 2026-04-22 11:44 | 51.54669 | 12.18431 | 15350 ft | 276 kts | 82° |
| 2026-04-22 11:44 | 51.54812 | 12.21508 | 15351 ft | 276 kts | 82° |
| 2026-04-22 11:44 | 51.54956 | 12.24574 | 15347 ft | 276 kts | 82° |
| 2026-04-22 11:45 | 51.55099 | 12.27647 | 15346 ft | 276 kts | 82° |
| 2026-04-22 11:45 | 51.55240 | 12.30717 | 15351 ft | 276 kts | 82° |
| 2026-04-22 11:45 | 51.55381 | 12.33798 | 15350 ft | 276 kts | 82° |
| 2026-04-22 11:45 | 51.55521 | 12.36883 | 15350 ft | 277 kts | 83° |
| 2026-04-22 11:46 | 51.55661 | 12.39967 | 15351 ft | 278 kts | 83° |
| 2026-04-22 11:46 | 51.55801 | 12.43074 | 15352 ft | 279 kts | 83° |
| 2026-04-22 11:46 | 51.55939 | 12.46144 | 15350 ft | 280 kts | 83° |
| 2026-04-22 11:46 | 51.56077 | 12.49258 | 15290 ft | 279 kts | 83° |
| 2026-04-22 11:47 | 51.56211 | 12.52333 | 14893 ft | 272 kts | 83° |
| 2026-04-22 11:47 | 51.56345 | 12.55388 | 14110 ft | 270 kts | 83° |
| 2026-04-22 11:47 | 51.56477 | 12.58362 | 13206 ft | 271 kts | 83° |
| 2026-04-22 11:47 | 51.56608 | 12.61373 | 12368 ft | 269 kts | 83° |
| 2026-04-22 11:48 | 51.56736 | 12.64351 | 11597 ft | 266 kts | 83° |
| 2026-04-22 11:48 | 51.56861 | 12.67304 | 10843 ft | 263 kts | 83° |
| 2026-04-22 11:48 | 51.56986 | 12.70214 | 10076 ft | 260 kts | 83° |
| 2026-04-22 11:48 | 51.57109 | 12.73108 | 9262 ft | 258 kts | 83° |
| 2026-04-22 11:49 | 51.57229 | 12.75962 | 8493 ft | 254 kts | 83° |
| 2026-04-22 11:49 | 51.57335 | 12.78781 | 7720 ft | 251 kts | 87° |
| 2026-04-22 11:49 | 51.56942 | 12.81513 | 6918 ft | 257 kts | 116° |
| 2026-04-22 11:49 | 51.55762 | 12.83680 | 6108 ft | 262 kts | 141° |
| 2026-04-22 11:50 | 51.54096 | 12.84896 | 5342 ft | 266 kts | 165° |
| 2026-04-22 11:50 | 51.52261 | 12.85050 | 4545 ft | 266 kts | 192° |
| 2026-04-22 11:50 | 51.50592 | 12.84032 | 4281 ft | 243 kts | 205° |
| 2026-04-22 11:50 | 51.49061 | 12.83016 | 4253 ft | 237 kts | 202° |
| 2026-04-22 11:51 | 51.47502 | 12.82030 | 4272 ft | 244 kts | 202° |
| 2026-04-22 11:51 | 51.45916 | 12.81022 | 4286 ft | 244 kts | 204° |
| 2026-04-22 11:51 | 51.44545 | 12.79514 | 4252 ft | 237 kts | 235° |
| 2026-04-22 11:51 | 51.43875 | 12.77180 | 4256 ft | 231 kts | 264° |
| 2026-04-22 11:52 | 51.43720 | 12.74634 | 4281 ft | 232 kts | 268° |
| 2026-04-22 11:52 | 51.43584 | 12.72017 | 4259 ft | 239 kts | 268° |
| 2026-04-22 11:52 | 51.43454 | 12.69373 | 4007 ft | 241 kts | 268° |
| 2026-04-22 11:52 | 51.43330 | 12.66751 | 3814 ft | 230 kts | 269° |
| 2026-04-22 11:53 | 51.43212 | 12.64242 | 3692 ft | 222 kts | 268° |
| 2026-04-22 11:53 | 51.43097 | 12.61782 | 3535 ft | 215 kts | 269° |
| 2026-04-22 11:53 | 51.42993 | 12.59443 | 3407 ft | 211 kts | 268° |
| 2026-04-22 11:53 | 51.42882 | 12.57147 | 3314 ft | 200 kts | 269° |
| 2026-04-22 11:54 | 51.42778 | 12.54959 | 3230 ft | 197 kts | 268° |
| 2026-04-22 11:54 | 51.42677 | 12.52811 | 3123 ft | 189 kts | 269° |
| 2026-04-22 11:54 | 51.42584 | 12.50750 | 3038 ft | 184 kts | 268° |
| 2026-04-22 11:54 | 51.42489 | 12.48720 | 3012 ft | 181 kts | 269° |
| 2026-04-22 11:55 | 51.42392 | 12.46705 | 3003 ft | 182 kts | 268° |
| 2026-04-22 11:55 | 51.42295 | 12.44668 | 2882 ft | 187 kts | 268° |
| 2026-04-22 11:55 | 51.42201 | 12.42596 | 2634 ft | 185 kts | 268° |
| 2026-04-22 11:55 | 51.42103 | 12.40573 | 2404 ft | 178 kts | 268° |
| 2026-04-22 11:56 | 51.42012 | 12.38646 | 2125 ft | 169 kts | 268° |
| 2026-04-22 11:56 | 51.41928 | 12.36821 | 1908 ft | 163 kts | 268° |
| 2026-04-22 11:56 | 51.41844 | 12.35046 | 1700 ft | 157 kts | 268° |
| 2026-04-22 11:56 | 51.41765 | 12.33346 | 1471 ft | 147 kts | 268° |
| 2026-04-22 11:57 | 51.41690 | 12.31753 | 1290 ft | 141 kts | 269° |
| 2026-04-22 11:57 | 51.41617 | 12.30184 | 1090 ft | 143 kts | 268° |
| 2026-04-22 11:57 | 51.41541 | 12.28595 | 893 ft | 143 kts | 269° |
| 2026-04-22 11:57 | 51.41469 | 12.27005 | 702 ft | 143 kts | 270° |
| 2026-04-22 11:58 | 51.41393 | 12.25420 | 504 ft | 142 kts | 269° |
| 2026-04-22 11:58 | 51.41323 | 12.24006 | 473 ft | 105 kts | 266° |
| 2026-04-22 11:58 | 51.41286 | 12.23136 | 469 ft | 52 kts | 266° |
| 2026-04-22 11:58 | 51.41264 | 12.22800 | 470 ft | 22 kts | 256° |
| 2026-04-22 11:59 | 51.41195 | 12.22578 | 466 ft | 22 kts | 232° |
| 2026-04-22 11:59 | 51.41108 | 12.22383 | 464 ft | 21 kts | 236° |
| 2026-04-22 11:59 | 51.41016 | 12.22327 | 465 ft | 12 kts | 153° |
| 2026-04-22 11:59 | 51.40995 | 12.22449 | 466 ft | 12 kts | 85° |
| 2026-04-22 12:00 | 51.41002 | 12.22584 | 469 ft | 12 kts | 85° |
| 2026-04-22 12:00 | 51.41007 | 12.22719 | 469 ft | 12 kts | 86° |
| 2026-04-22 12:00 | 51.41014 | 12.22855 | 471 ft | 12 kts | 85° |
| 2026-04-22 12:00 | 51.41021 | 12.22990 | 473 ft | 12 kts | 85° |
| 2026-04-22 12:01 | 51.41026 | 12.23127 | 473 ft | 12 kts | 86° |
| 2026-04-22 12:01 | 51.41033 | 12.23264 | 469 ft | 13 kts | 85° |
| 2026-04-22 12:01 | 51.41040 | 12.23410 | 475 ft | 13 kts | 86° |
| 2026-04-22 12:01 | 51.41047 | 12.23555 | 472 ft | 13 kts | 85° |
| 2026-04-22 12:02 | 51.41054 | 12.23701 | 475 ft | 13 kts | 85° |
| 2026-04-22 12:02 | 51.41061 | 12.23847 | 469 ft | 13 kts | 85° |
| 2026-04-22 12:02 | 51.41067 | 12.23993 | 474 ft | 13 kts | 86° |
| 2026-04-22 12:02 | 51.41074 | 12.24140 | 468 ft | 13 kts | 86° |
| 2026-04-22 12:03 | 51.41081 | 12.24286 | 473 ft | 13 kts | 85° |
| 2026-04-22 12:03 | 51.41088 | 12.24432 | 469 ft | 13 kts | 85° |
| 2026-04-22 12:03 | 51.41095 | 12.24573 | 472 ft | 11 kts | 86° |
| 2026-04-22 12:03 | 51.41047 | 12.24648 | 473 ft | 11 kts | 172° |
| 2026-04-22 12:04 | 51.40959 | 12.24660 | 467 ft | 14 kts | 175° |
| 2026-04-22 12:04 | 51.40891 | 12.24661 | 470 ft | 7 kts | 204° |
| 2026-04-22 12:04 | 51.40872 | 12.24595 | 470 ft | 7 kts | 264° |
| 2026-04-22 12:04 | 51.40868 | 12.24525 | 470 ft | 1 kts | 265° |
| 2026-04-22 12:05 | 51.40867 | 12.24507 | 470 ft | 0 kts | 266° |